createdAt,value
2023-04-16T00:01:40.842Z,100136.84
2023-04-16T00:04:11.222Z,100134.74
2023-04-16T00:06:40.584Z,100137.64
2023-04-16T00:09:08.891Z,100134.60
2023-04-16T00:11:36.904Z,100137.89
2023-04-16T00:14:05.166Z,100138.56
2023-04-16T00:16:33.382Z,100140.42
2023-04-16T00:19:01.326Z,100141.95
2023-04-16T00:21:29.229Z,100142.20
2023-04-16T00:23:57.025Z,100142.39
2023-04-16T00:26:24.909Z,100141.80
2023-04-16T00:28:53.498Z,100139.62
2023-04-16T00:31:33.277Z,100138.43
2023-04-16T00:34:01.115Z,100139.33
2023-04-16T00:36:29.767Z,100143.41
2023-04-16T00:38:57.912Z,100144.46
2023-04-16T00:41:26.979Z,100143.23
2023-04-16T00:43:55.496Z,100145.02
2023-04-16T00:46:25.084Z,100143.98
2023-04-16T00:48:54.433Z,100143.42
2023-04-16T00:51:22.868Z,100145.38
2023-04-16T00:53:51.191Z,100143.79
2023-04-16T00:56:20.487Z,100143.91
2023-04-16T00:58:49.752Z,100147.83
2023-04-16T01:01:17.622Z,100148.36
2023-04-16T01:03:48.368Z,100146.55
2023-04-16T01:06:18.238Z,100150.35
2023-04-16T01:08:48.468Z,100151.05
2023-04-16T01:11:16.468Z,100150.02
2023-04-16T01:13:44.351Z,100153.98
2023-04-16T01:16:13.253Z,100150.89
2023-04-16T01:18:41.222Z,100152.10
2023-04-16T01:21:09.221Z,100155.98
2023-04-16T01:23:37.085Z,100151.34
2023-04-16T01:26:05.327Z,100147.88
2023-04-16T01:28:33.303Z,100148.73
2023-04-16T01:31:01.483Z,100150.09
2023-04-16T01:33:42.747Z,100152.17
2023-04-16T01:36:11.060Z,100152.83
2023-04-16T01:38:39.546Z,100150.99
2023-04-16T01:41:07.697Z,100154.08
2023-04-16T01:43:38.428Z,100152.66
2023-04-16T01:53:43.569Z,100170.01
2023-04-16T01:56:13.835Z,100168.67
2023-04-16T01:58:43.054Z,100166.27
2023-04-16T02:01:11.235Z,100167.94
2023-04-16T02:03:40.441Z,100166.60
2023-04-16T02:06:08.658Z,100168.61
2023-04-16T02:08:37.159Z,100172.39
2023-04-16T02:11:05.016Z,100177.07
2023-04-16T02:13:33.294Z,100184.89
2023-04-16T02:16:01.505Z,100189.80
2023-04-16T02:18:49.773Z,100196.95
2023-04-16T02:21:18.796Z,100194.23
2023-04-16T02:23:51.825Z,100204.05
2023-04-16T02:26:24.555Z,100199.51
2023-04-16T02:28:52.383Z,100200.54
2023-04-16T02:31:22.546Z,100201.70
2023-04-16T02:33:50.726Z,100204.40
2023-04-16T02:36:18.550Z,100209.35
2023-04-16T02:38:47.024Z,100211.23
2023-04-16T02:41:16.090Z,100209.86
2023-04-16T02:43:44.222Z,100212.58
2023-04-16T02:46:12.379Z,100207.38
2023-04-16T02:48:40.882Z,100211.96
2023-04-16T02:51:08.930Z,100212.10
2023-04-16T02:53:36.743Z,100214.89
2023-04-16T02:56:05.180Z,100220.09
2023-04-16T02:58:33.230Z,100222.98
2023-04-16T03:01:01.411Z,100221.26
2023-04-16T03:03:29.411Z,100219.69
2023-04-16T03:05:57.258Z,100220.33
2023-04-16T03:08:25.353Z,100217.23
2023-04-16T03:10:53.310Z,100218.21
2023-04-16T03:13:21.342Z,100218.55
2023-04-16T03:15:50.246Z,100216.61
2023-04-16T03:18:18.259Z,100216.63
2023-04-16T03:20:46.394Z,100217.13
2023-04-16T03:23:14.300Z,100211.68
2023-04-16T03:25:44.713Z,100214.49
2023-04-16T03:28:12.579Z,100218.91
2023-04-16T03:30:40.487Z,100215.96
2023-04-16T03:33:09.154Z,100221.09
2023-04-16T03:35:37.388Z,100221.42
2023-04-16T03:38:05.492Z,100219.17
2023-04-16T03:40:33.407Z,100224.66
2023-04-16T03:43:01.667Z,100219.27
2023-04-16T03:45:29.514Z,100218.20
2023-04-16T03:47:57.704Z,100217.17
2023-04-16T03:50:26.856Z,100221.49
2023-04-16T03:52:55.060Z,100229.59
2023-04-16T03:55:24.133Z,100233.16
2023-04-16T03:57:52.209Z,100240.16
2023-04-16T04:00:20.016Z,100239.95
2023-04-16T04:03:01.255Z,100239.66
2023-04-16T04:05:29.382Z,100241.04
2023-04-16T04:07:57.251Z,100244.04
2023-04-16T04:10:25.619Z,100245.55
2023-04-16T04:12:54.562Z,100247.17
2023-04-16T04:15:22.444Z,100252.16
2023-04-16T04:17:50.373Z,100257.70
2023-04-16T04:20:18.476Z,100259.88
2023-04-16T04:22:47.158Z,100264.53
2023-04-16T04:25:17.364Z,100266.13
2023-04-16T04:27:45.200Z,100268.61
2023-04-16T04:30:13.138Z,100271.44
2023-04-16T04:32:41.729Z,100270.65
2023-04-16T04:35:10.639Z,100275.73
2023-04-16T04:37:38.648Z,100279.80
2023-04-16T04:40:14.596Z,100279.48
2023-04-16T04:42:42.375Z,100278.46
2023-04-16T04:45:11.774Z,100281.73
2023-04-16T04:47:39.884Z,100285.75
2023-04-16T04:50:08.830Z,100281.52
2023-04-16T04:52:36.759Z,100282.24
2023-04-16T04:55:05.481Z,100281.98
2023-04-16T04:57:33.375Z,100285.56
2023-04-16T05:00:04.461Z,100286.29
2023-04-16T05:02:40.103Z,100291.63
2023-04-16T05:05:08.885Z,100291.05
2023-04-16T05:07:36.995Z,100292.52
2023-04-16T05:10:07.225Z,100294.77
2023-04-16T05:12:35.189Z,100292.02
2023-04-16T05:15:03.301Z,100296.50
2023-04-16T05:17:31.497Z,100298.07
2023-04-16T05:20:00.624Z,100293.84
2023-04-16T05:22:28.600Z,100298.91
2023-04-16T05:24:56.490Z,100299.18
2023-04-16T05:27:24.332Z,100294.30
2023-04-16T05:30:17.749Z,100299.66
2023-04-16T05:32:46.051Z,100296.64
2023-04-16T05:35:16.671Z,100297.82
2023-04-16T05:37:45.416Z,100303.61
2023-04-16T05:40:14.421Z,100306.62
2023-04-16T05:42:42.254Z,100308.38
2023-04-16T05:45:10.866Z,100309.87
2023-04-16T05:47:38.780Z,100304.26
2023-04-16T05:50:07.630Z,100302.30
2023-04-16T05:52:35.763Z,100300.16
2023-04-16T05:55:03.933Z,100304.08
2023-04-16T05:57:31.718Z,100307.73
2023-04-16T05:59:59.563Z,100307.33
2023-04-16T06:02:28.201Z,100310.23
2023-04-16T06:04:56.782Z,100307.69
2023-04-16T06:07:24.710Z,100307.60
2023-04-16T06:09:52.637Z,100310.05
2023-04-16T06:12:20.844Z,100311.05
2023-04-16T06:14:48.628Z,100311.20
2023-04-16T06:17:16.842Z,100313.20
2023-04-16T06:19:44.702Z,100313.39
2023-04-16T06:22:12.716Z,100314.58
2023-04-16T06:24:40.994Z,100315.58
2023-04-16T06:27:08.820Z,100320.71
2023-04-16T06:29:40.962Z,100326.80
2023-04-16T06:32:09.615Z,100323.02
2023-04-16T06:34:39.079Z,100326.73
2023-04-16T06:37:09.868Z,100323.66
2023-04-16T06:39:38.890Z,100327.94
2023-04-16T06:42:07.586Z,100332.84
2023-04-16T06:44:36.106Z,100333.95
2023-04-16T06:47:04.132Z,100334.42
2023-04-16T06:49:32.351Z,100337.85
2023-04-16T06:52:00.430Z,100336.86
2023-04-16T06:54:28.254Z,100336.69
2023-04-16T06:56:56.265Z,100340.60
2023-04-16T06:59:24.403Z,100341.32
2023-04-16T07:01:53.022Z,100339.73
2023-04-16T07:04:21.921Z,100345.06
2023-04-16T07:06:49.917Z,100348.42
2023-04-16T07:09:20.589Z,100350.55
2023-04-16T07:11:48.457Z,100355.30
2023-04-16T07:14:16.342Z,100358.14
2023-04-16T07:16:44.582Z,100363.98
2023-04-16T07:19:12.493Z,100366.35
2023-04-16T07:21:42.140Z,100371.75
2023-04-16T07:24:11.839Z,100373.85
2023-04-16T07:26:39.775Z,100379.34
2023-04-16T07:29:08.385Z,100379.83
2023-04-16T07:31:36.695Z,100382.77
2023-04-16T07:34:05.006Z,100385.23
2023-04-16T07:36:32.898Z,100390.73
2023-04-16T07:39:01.170Z,100391.05
2023-04-16T07:41:29.851Z,100390.58
2023-04-16T07:43:58.436Z,100392.88
2023-04-16T07:46:30.485Z,100394.74
2023-04-16T07:49:04.032Z,100396.76
2023-04-16T07:51:32.773Z,100400.77
2023-04-16T07:54:01.348Z,100403.14
2023-04-16T07:56:29.140Z,100407.92
2023-04-16T07:58:58.332Z,100405.50
2023-04-16T08:01:31.604Z,100412.30
2023-04-16T08:03:59.820Z,100412.67
2023-04-16T08:06:27.919Z,100413.29
2023-04-16T08:08:56.189Z,100416.59
2023-04-16T08:11:24.263Z,100418.79
2023-04-16T08:13:52.286Z,100419.55
2023-04-16T08:16:20.405Z,100415.55
2023-04-16T08:18:48.514Z,100418.13
2023-04-16T08:21:16.454Z,100420.78
2023-04-16T08:23:44.353Z,100422.73
2023-04-16T08:26:12.130Z,100429.22
2023-04-16T08:28:40.036Z,100432.35
2023-04-16T08:31:07.933Z,100423.80
2023-04-16T08:33:36.230Z,100424.34
2023-04-16T08:36:06.099Z,100425.89
2023-04-16T08:38:33.892Z,100426.77
2023-04-16T08:41:05.793Z,100431.94
2023-04-16T08:43:36.716Z,100429.23
2023-04-16T08:46:05.997Z,100431.27
2023-04-16T08:48:35.084Z,100433.05
2023-04-16T08:51:03.468Z,100436.84
2023-04-16T08:53:49.610Z,100434.77
2023-04-16T08:56:21.557Z,100430.70
2023-04-16T08:58:51.956Z,100430.04
2023-04-16T09:01:21.200Z,100431.78
2023-04-16T09:03:49.549Z,100431.48
2023-04-16T09:06:18.524Z,100434.45
2023-04-16T09:08:48.386Z,100437.09
2023-04-16T09:11:18.864Z,100441.66
2023-04-16T09:13:47.714Z,100451.21
2023-04-16T09:16:16.103Z,100454.95
2023-04-16T09:18:44.105Z,100456.91
2023-04-16T09:21:12.995Z,100457.92
2023-04-16T09:23:41.736Z,100458.66
2023-04-16T09:26:09.643Z,100456.17
2023-04-16T09:28:46.462Z,100458.78
2023-04-16T09:31:16.142Z,100456.05
2023-04-16T09:34:00.587Z,100459.90
2023-04-16T09:36:29.084Z,100460.80
2023-04-16T09:38:58.176Z,100460.52
2023-04-16T09:41:31.241Z,100460.14
2023-04-16T09:44:01.132Z,100461.90
2023-04-16T09:46:37.038Z,100467.53
2023-04-16T09:49:09.519Z,100468.88
2023-04-16T09:51:38.749Z,100469.82
2023-04-16T09:54:07.696Z,100468.32
2023-04-16T09:56:43.718Z,100472.30
2023-04-16T09:59:22.142Z,100472.55
2023-04-16T10:01:50.725Z,100476.55
2023-04-16T10:04:19.946Z,100483.46
2023-04-16T10:07:05.952Z,100484.83
2023-04-16T10:09:43.045Z,100487.55
2023-04-16T10:12:12.978Z,100489.23
2023-04-16T10:14:42.308Z,100489.48
2023-04-16T10:17:10.557Z,100485.02
2023-04-16T10:19:39.427Z,100488.95
2023-04-16T10:22:07.360Z,100491.86
2023-04-16T10:24:35.731Z,100495.39
2023-04-16T10:27:04.222Z,100501.11
2023-04-16T10:29:33.840Z,100501.32
2023-04-16T10:32:03.542Z,100501.40
2023-04-16T10:34:32.037Z,100500.50
2023-04-16T10:36:59.866Z,100499.35
2023-04-16T10:39:29.704Z,100497.54
2023-04-16T10:42:12.417Z,100496.05
2023-04-16T10:44:45.199Z,100500.77
2023-04-16T10:47:14.530Z,100495.92
2023-04-16T10:49:43.864Z,100496.62
2023-04-16T10:52:17.104Z,100499.22
2023-04-16T10:54:46.915Z,100500.18
2023-04-16T10:57:20.840Z,100499.08
2023-04-16T10:59:49.591Z,100502.11
2023-04-16T11:02:19.433Z,100501.98
2023-04-16T11:04:51.867Z,100504.68
2023-04-16T11:07:21.729Z,100507.77
2023-04-16T11:09:59.854Z,100504.48
2023-04-16T11:12:42.391Z,100505.98
2023-04-16T11:15:16.006Z,100504.66
2023-04-16T11:17:46.124Z,100501.68
2023-04-16T11:20:20.973Z,100505.48
2023-04-16T11:22:50.607Z,100501.66
2023-04-16T11:25:23.552Z,100494.92
2023-04-16T11:27:53.061Z,100496.09
2023-04-16T11:30:36.316Z,100493.66
2023-04-16T11:33:13.478Z,100497.02
2023-04-16T11:35:41.637Z,100490.55
2023-04-16T11:38:09.643Z,100495.11
2023-04-16T11:40:37.774Z,100493.67
2023-04-16T11:43:15.547Z,100485.40
2023-04-16T11:46:26.968Z,100489.34
2023-04-16T11:48:56.273Z,100490.03
2023-04-16T11:51:24.349Z,100485.19
2023-04-16T11:53:54.436Z,100487.52
2023-04-16T11:56:30.050Z,100487.63
2023-04-16T11:59:11.648Z,100489.12
2023-04-16T12:01:41.834Z,100492.55
2023-04-16T12:04:10.245Z,100488.84
2023-04-16T12:06:38.454Z,100485.95
2023-04-16T12:09:27.268Z,100489.92
2023-04-16T12:11:55.199Z,100487.89
2023-04-16T12:14:23.849Z,100492.30
2023-04-16T12:16:51.941Z,100492.88
2023-04-16T12:19:19.853Z,100492.96
2023-04-16T12:21:49.947Z,100493.05
2023-04-16T12:24:24.204Z,100490.69
2023-04-16T12:27:03.359Z,100490.45
2023-04-16T12:29:32.185Z,100488.04
2023-04-16T12:32:00.686Z,100486.95
2023-04-16T12:34:46.764Z,100488.80
2023-04-16T12:37:16.623Z,100482.92
2023-04-16T12:39:45.482Z,100481.95
2023-04-16T12:42:15.079Z,100478.30
2023-04-16T12:44:42.972Z,100481.84
2023-04-16T12:47:11.398Z,100484.91
2023-04-16T12:49:40.800Z,100482.24
2023-04-16T12:52:08.622Z,100482.44
2023-04-16T12:54:36.548Z,100480.23
2023-04-16T12:57:04.538Z,100478.09
2023-04-16T12:59:32.286Z,100478.31
2023-04-16T13:02:02.907Z,100479.54
2023-04-16T13:04:31.493Z,100479.86
2023-04-16T13:06:59.644Z,100482.36
2023-04-16T13:09:27.648Z,100480.62
2023-04-16T13:11:55.591Z,100478.95
2023-04-16T13:14:23.382Z,100480.45
2023-04-16T13:16:51.337Z,100478.75
2023-04-16T13:19:19.328Z,100480.34
2023-04-16T13:21:47.714Z,100478.88
2023-04-16T13:24:15.772Z,100479.64
2023-04-16T13:26:43.835Z,100474.46
2023-04-16T13:29:12.035Z,100474.63
2023-04-16T13:31:40.839Z,100471.71
2023-04-16T13:34:08.809Z,100471.48
2023-04-16T13:36:38.561Z,100469.51
2023-04-16T13:39:11.058Z,100468.31
2023-04-16T13:41:39.419Z,100469.75
2023-04-16T13:44:07.791Z,100471.64
2023-04-16T13:46:35.751Z,100469.69
2023-04-16T13:49:04.030Z,100470.01
2023-04-16T13:51:32.303Z,100471.64
2023-04-16T13:54:00.147Z,100469.13
2023-04-16T13:56:28.196Z,100468.62
2023-04-16T13:58:56.238Z,100463.67
2023-04-16T14:01:24.266Z,100470.95
2023-04-16T14:03:52.266Z,100468.39
2023-04-16T14:06:20.585Z,100469.48
2023-04-16T14:08:48.358Z,100472.59
2023-04-16T14:11:16.261Z,100472.77
2023-04-16T14:13:44.126Z,100473.74
2023-04-16T14:16:12.137Z,100477.86
2023-04-16T14:18:42.492Z,100481.02
2023-04-16T14:21:10.785Z,100476.42
2023-04-16T14:23:38.817Z,100479.21
2023-04-16T14:26:06.735Z,100478.33
2023-04-16T14:28:35.978Z,100477.42
2023-04-16T14:31:03.967Z,100478.00
2023-04-16T14:33:32.492Z,100476.62
2023-04-16T14:36:02.731Z,100478.09
2023-04-16T14:38:32.102Z,100475.73
2023-04-16T14:41:00.709Z,100480.15
2023-04-16T14:43:28.970Z,100481.39
2023-04-16T14:45:59.866Z,100485.01
2023-04-16T14:48:28.192Z,100486.42
2023-04-16T14:50:59.338Z,100486.39
2023-04-16T14:53:29.159Z,100483.81
2023-04-16T14:55:59.462Z,100482.02
2023-04-16T14:58:27.300Z,100485.98
2023-04-16T15:00:55.221Z,100487.55
2023-04-16T15:03:29.369Z,100493.22
2023-04-16T15:06:00.351Z,100489.65
2023-04-16T15:08:28.738Z,100492.36
2023-04-16T15:10:56.689Z,100496.23
2023-04-16T15:13:24.549Z,100496.73
2023-04-16T15:15:52.375Z,100493.74
2023-04-16T15:18:21.010Z,100491.59
2023-04-16T15:20:49.110Z,100491.61
2023-04-16T15:23:17.020Z,100493.05
2023-04-16T15:25:44.918Z,100489.33
2023-04-16T15:28:13.307Z,100492.55
2023-04-16T15:30:41.595Z,100492.30
2023-04-16T15:33:12.582Z,100494.70
2023-04-16T15:35:41.388Z,100497.11
2023-04-16T15:38:09.188Z,100496.68
2023-04-16T15:40:37.026Z,100497.50
2023-04-16T15:43:06.551Z,100500.44
2023-04-16T15:45:34.450Z,100501.20
2023-04-16T15:48:02.505Z,100506.57
2023-04-16T15:50:31.795Z,100504.20
2023-04-16T15:53:01.504Z,100503.58
2023-04-16T15:55:29.417Z,100503.23
2023-04-16T15:57:57.443Z,100500.94
2023-04-16T16:00:26.113Z,100500.86
2023-04-16T16:02:54.074Z,100503.09
2023-04-16T16:05:24.915Z,100505.92
2023-04-16T16:07:52.833Z,100507.57
2023-04-16T16:10:21.266Z,100511.29
2023-04-16T16:12:49.446Z,100511.80
2023-04-16T16:15:17.654Z,100516.83
2023-04-16T16:17:45.781Z,100520.18
2023-04-16T16:20:16.864Z,100522.18
2023-04-16T16:22:47.846Z,100520.14
2023-04-16T16:25:18.552Z,100525.73
2023-04-16T16:27:47.662Z,100524.51
2023-04-16T16:30:15.565Z,100525.95
2023-04-16T16:32:44.511Z,100534.09
2023-04-16T16:35:12.653Z,100533.16
2023-04-16T16:37:40.793Z,100535.91
2023-04-16T16:40:09.566Z,100540.91
2023-04-16T16:42:37.458Z,100549.73
2023-04-16T16:45:07.849Z,100548.85
2023-04-16T16:47:35.997Z,100552.35
2023-04-16T16:50:05.499Z,100558.10
2023-04-16T16:52:33.544Z,100561.45
2023-04-16T16:55:01.393Z,100568.35
2023-04-16T16:57:31.673Z,100573.02
2023-04-16T17:00:08.806Z,100570.91
2023-04-16T17:02:39.017Z,100575.16
2023-04-16T17:05:08.522Z,100576.58
2023-04-16T17:07:37.421Z,100579.44
2023-04-16T17:10:08.486Z,100582.81
2023-04-16T17:12:37.091Z,100583.52
2023-04-16T17:15:05.732Z,100584.95
2023-04-16T17:17:34.187Z,100583.71
2023-04-16T17:20:08.576Z,100591.80
2023-04-16T17:22:40.175Z,100595.33
2023-04-16T17:25:09.238Z,100597.29
2023-04-16T17:27:37.754Z,100600.18
2023-04-16T17:30:06.913Z,100599.40
2023-04-16T17:32:35.036Z,100601.84
2023-04-16T17:35:04.383Z,100609.17
2023-04-16T17:37:33.221Z,100609.41
2023-04-16T17:40:07.398Z,100612.36
2023-04-16T17:42:36.433Z,100613.30
2023-04-16T17:45:04.772Z,100620.95
2023-04-16T17:47:36.125Z,100621.88
2023-04-16T17:50:05.010Z,100630.98
2023-04-16T17:52:33.239Z,100630.66
2023-04-16T17:55:01.792Z,100634.67
2023-04-16T17:57:31.222Z,100638.91
2023-04-16T17:59:59.170Z,100644.47
2023-04-16T18:02:27.298Z,100641.70
2023-04-16T18:04:56.284Z,100641.64
2023-04-16T18:07:24.608Z,100641.39
2023-04-16T18:09:53.253Z,100640.26
2023-04-16T18:12:21.270Z,100644.48
2023-04-16T18:14:49.130Z,100646.15
2023-04-16T18:17:18.011Z,100646.30
2023-04-16T18:19:45.980Z,100650.38
2023-04-16T18:22:13.928Z,100653.70
2023-04-16T18:24:42.037Z,100657.67
2023-04-16T18:27:10.121Z,100657.25
2023-04-16T18:29:39.951Z,100659.61
2023-04-16T18:32:11.768Z,100660.37
2023-04-16T18:34:41.818Z,100663.83
2023-04-16T18:37:09.753Z,100663.61
2023-04-16T18:39:37.686Z,100662.76
2023-04-16T18:42:06.320Z,100663.66
2023-04-16T18:44:34.376Z,100665.20
2023-04-16T18:47:02.324Z,100669.20
2023-04-16T18:49:30.616Z,100667.26
2023-04-16T18:51:58.892Z,100668.90
2023-04-16T18:54:27.799Z,100668.58
2023-04-16T18:56:57.740Z,100674.12
2023-04-16T18:59:27.306Z,100675.71
2023-04-16T19:01:55.628Z,100675.38
2023-04-16T19:04:23.924Z,100674.73
2023-04-16T19:06:52.024Z,100679.76
2023-04-16T19:09:20.505Z,100676.38
2023-04-16T19:11:50.704Z,100674.92
2023-04-16T19:14:20.990Z,100677.55
2023-04-16T19:16:49.488Z,100679.48
2023-04-16T19:19:17.694Z,100680.99
2023-04-16T19:21:52.060Z,100678.75
2023-04-16T19:24:20.048Z,100676.73
2023-04-16T19:26:47.876Z,100679.11
2023-04-16T19:29:18.039Z,100681.63
2023-04-16T19:31:47.369Z,100684.50
2023-04-16T19:34:17.966Z,100679.88
2023-04-16T19:36:46.005Z,100681.73
2023-04-16T19:39:14.100Z,100678.59
2023-04-16T19:41:42.046Z,100679.95
2023-04-16T19:44:11.104Z,100677.31
2023-04-16T19:46:38.961Z,100678.65
2023-04-16T19:49:06.728Z,100677.36
2023-04-16T19:51:35.284Z,100683.00
2023-04-16T19:54:03.250Z,100678.96
2023-04-16T19:56:31.369Z,100682.80
2023-04-16T19:58:59.549Z,100685.38
2023-04-16T20:01:28.365Z,100684.19
2023-04-16T20:03:56.729Z,100685.45
2023-04-16T20:06:26.241Z,100689.27
2023-04-16T20:08:54.313Z,100686.75
2023-04-16T20:11:22.359Z,100679.73
2023-04-16T20:13:50.381Z,100685.19
2023-04-16T20:16:24.133Z,100685.04
2023-04-16T20:18:54.696Z,100681.61
2023-04-16T20:21:22.738Z,100677.00
2023-04-16T20:23:50.762Z,100676.54
2023-04-16T20:26:18.943Z,100672.23
2023-04-16T20:28:46.978Z,100673.39
2023-04-16T20:31:14.887Z,100675.41
2023-04-16T20:33:42.702Z,100671.37
2023-04-16T20:36:10.692Z,100674.40
2023-04-16T20:38:39.023Z,100674.82
2023-04-16T20:41:10.479Z,100678.89
2023-04-16T20:43:40.831Z,100675.33
2023-04-16T20:46:09.938Z,100676.94
2023-04-16T20:48:39.172Z,100680.82
2023-04-16T20:51:09.538Z,100682.66
2023-04-16T20:53:38.372Z,100679.98
2023-04-16T20:56:07.360Z,100679.23
2023-04-16T20:58:35.606Z,100682.48
2023-04-16T21:01:05.704Z,100683.34
2023-04-16T21:03:33.861Z,100684.44
2023-04-16T21:06:01.995Z,100681.61
2023-04-16T21:08:30.111Z,100681.04
2023-04-16T21:10:58.345Z,100681.70
2023-04-16T21:13:26.479Z,100681.80
2023-04-16T21:15:54.664Z,100686.23
2023-04-16T21:18:22.766Z,100687.48
2023-04-16T21:20:50.781Z,100695.51
2023-04-16T21:23:18.659Z,100694.54
2023-04-16T21:25:46.559Z,100693.70
2023-04-16T21:28:14.341Z,100693.72
2023-04-16T21:30:43.071Z,100692.31
2023-04-16T21:33:13.048Z,100689.59
2023-04-16T21:35:40.970Z,100690.70
2023-04-16T21:38:09.856Z,100687.81
2023-04-16T21:40:38.736Z,100691.33
2023-04-16T21:43:06.588Z,100693.69
2023-04-16T21:45:34.369Z,100695.38
2023-04-16T21:48:02.312Z,100696.48
2023-04-16T21:50:30.262Z,100699.01
2023-04-16T21:52:58.262Z,100693.46
2023-04-16T21:55:26.209Z,100693.39
2023-04-16T21:57:54.001Z,100695.55
2023-04-16T22:00:21.781Z,100698.08
2023-04-16T22:02:49.682Z,100692.96
2023-04-16T22:05:17.934Z,100692.33
2023-04-16T22:07:46.001Z,100691.38
2023-04-16T22:10:15.166Z,100689.40
2023-04-16T22:12:45.758Z,100690.33
2023-04-16T22:15:14.292Z,100692.31
2023-04-16T22:17:42.478Z,100702.06
2023-04-16T22:20:14.011Z,100700.27
2023-04-16T22:22:43.020Z,100696.94
2023-04-16T22:25:11.602Z,100701.82
2023-04-16T22:27:39.800Z,100696.73
2023-04-16T22:30:08.658Z,100699.48
2023-04-16T22:32:36.646Z,100696.89
2023-04-16T22:35:05.352Z,100696.04
2023-04-16T22:37:33.806Z,100694.78
2023-04-16T22:40:01.871Z,100696.73
2023-04-16T22:42:29.926Z,100698.34
2023-04-16T22:44:57.716Z,100699.33
2023-04-16T22:47:25.552Z,100694.98
2023-04-16T22:49:53.811Z,100701.69
2023-04-16T22:52:21.626Z,100695.30
2023-04-16T22:54:49.580Z,100692.80
2023-04-16T22:57:21.229Z,100689.05
2023-04-16T22:59:49.205Z,100693.07
2023-04-16T23:02:18.010Z,100692.98
2023-04-16T23:04:48.046Z,100691.69
2023-04-16T23:07:16.604Z,100691.06
2023-04-16T23:09:44.453Z,100686.69
2023-04-16T23:12:12.520Z,100687.70
2023-04-16T23:14:46.169Z,100688.16
2023-04-16T23:17:14.224Z,100688.76
2023-04-16T23:19:42.153Z,100690.14
2023-04-16T23:22:10.172Z,100688.77
2023-04-16T23:24:38.703Z,100685.14
2023-04-16T23:27:06.512Z,100680.55
2023-04-16T23:29:34.353Z,100679.41
2023-04-16T23:32:02.301Z,100680.52
2023-04-16T23:34:30.473Z,100676.52
2023-04-16T23:36:58.250Z,100680.20
2023-04-16T23:39:26.355Z,100679.42
2023-04-16T23:41:54.332Z,100678.11
2023-04-16T23:44:22.272Z,100679.34
2023-04-16T23:46:50.143Z,100681.58
2023-04-16T23:49:18.260Z,100682.63
2023-04-16T23:51:46.106Z,100681.04
2023-04-16T23:54:14.874Z,100683.08
2023-04-16T23:56:43.217Z,100680.41
2023-04-16T23:59:11.319Z,100677.59
